createdAt,value
2018-09-05T00:00:41.779Z,23.30
2018-09-05T00:03:09.313Z,23.97
2018-09-05T00:05:36.889Z,23.67
2018-09-05T00:08:04.414Z,22.40
2018-09-05T00:10:31.988Z,23.77
2018-09-05T00:12:59.547Z,24.57
2018-09-05T00:15:27.188Z,24.23
2018-09-05T00:17:54.718Z,23.57
2018-09-05T00:20:22.259Z,23.80
2018-09-05T00:22:49.860Z,25.03
2018-09-05T00:25:17.443Z,24.53
2018-09-05T00:27:45.001Z,25.00
2018-09-05T00:30:13.656Z,24.00
2018-09-05T00:32:41.202Z,23.53
2018-09-05T00:35:08.816Z,22.53
2018-09-05T00:37:36.377Z,24.00
2018-09-05T00:40:03.950Z,22.13
2018-09-05T00:42:31.485Z,22.52
2018-09-05T00:44:59.072Z,22.77
2018-09-05T00:47:26.607Z,21.03
2018-09-05T00:49:54.266Z,21.47
2018-09-05T00:52:21.806Z,21.37
2018-09-05T00:54:49.348Z,20.43
2018-09-05T00:57:16.934Z,22.10
2018-09-05T00:59:44.498Z,22.60
2018-09-05T01:02:12.079Z,22.17
2018-09-05T01:04:39.825Z,22.07
2018-09-05T01:07:07.418Z,21.67
2018-09-05T01:09:34.950Z,21.20
2018-09-05T01:12:02.527Z,22.17
2018-09-05T01:14:30.043Z,22.10
2018-09-05T01:16:57.606Z,21.50
2018-09-05T01:19:25.183Z,23.37
2018-09-05T01:21:52.719Z,24.50
2018-09-05T01:24:20.427Z,22.10
2018-09-05T01:26:48.044Z,20.03
2018-09-05T01:29:15.620Z,23.23
2018-09-05T01:31:43.176Z,21.50
2018-09-05T01:34:10.752Z,21.13
2018-09-05T01:36:38.329Z,20.80
2018-09-05T01:39:05.841Z,21.30
2018-09-05T01:41:33.373Z,21.03
2018-09-05T01:44:01.041Z,20.07
2018-09-05T01:46:28.638Z,20.40
2018-09-05T01:48:56.248Z,20.07
2018-09-05T01:51:23.823Z,19.77
2018-09-05T01:53:51.419Z,19.27
2018-09-05T01:56:19.005Z,20.02
2018-09-05T01:58:46.699Z,19.23
2018-09-05T02:01:14.246Z,20.27
2018-09-05T02:03:41.778Z,20.03
2018-09-05T02:06:09.352Z,18.93
2018-09-05T02:08:37.193Z,19.37
2018-09-05T02:11:04.868Z,18.97
2018-09-05T02:13:32.432Z,20.07
2018-09-05T02:15:59.957Z,19.07
2018-09-05T02:18:27.541Z,19.13
2018-09-05T02:20:55.101Z,19.50
2018-09-05T02:23:22.672Z,18.23
2018-09-05T02:25:50.263Z,18.27
2018-09-05T02:28:18.064Z,18.47
2018-09-05T02:30:45.642Z,19.83
2018-09-05T02:33:13.254Z,19.17
2018-09-05T02:35:40.825Z,19.40
2018-09-05T02:38:08.396Z,18.63
2018-09-05T02:40:36.005Z,18.97
2018-09-05T02:43:03.528Z,23.57
2018-09-05T02:45:31.181Z,18.83
2018-09-05T02:47:58.708Z,18.80
2018-09-05T02:50:26.413Z,19.67
2018-09-05T02:52:53.946Z,19.33
2018-09-05T02:55:21.531Z,19.40
2018-09-05T02:57:49.061Z,19.00
2018-09-05T03:00:16.651Z,16.87
2018-09-05T03:02:44.183Z,18.70
2018-09-05T03:05:11.774Z,19.67
2018-09-05T03:07:39.314Z,19.20
2018-09-05T03:10:06.872Z,18.40
2018-09-05T03:12:34.475Z,20.33
2018-09-05T03:15:02.010Z,18.97
2018-09-05T03:17:29.593Z,19.83
2018-09-05T03:19:57.206Z,18.77
2018-09-05T03:22:25.833Z,18.77
2018-09-05T03:24:53.375Z,18.90
2018-09-05T03:27:20.941Z,19.60
2018-09-05T03:29:48.473Z,19.77
2018-09-05T03:32:16.122Z,18.90
2018-09-05T03:34:43.618Z,19.40
2018-09-05T03:37:11.135Z,19.47
2018-09-05T03:39:38.728Z,18.77
2018-09-05T03:42:06.255Z,19.40
2018-09-05T03:44:33.844Z,17.07
2018-09-05T03:47:01.422Z,18.57
2018-09-05T03:49:28.957Z,17.87
2018-09-05T03:51:56.544Z,18.33
2018-09-05T03:54:24.068Z,18.02
2018-09-05T03:56:51.794Z,18.87
2018-09-05T03:59:19.310Z,18.45
2018-09-05T04:01:47.018Z,18.93
2018-09-05T04:04:14.566Z,17.70
2018-09-05T04:06:42.132Z,18.03
2018-09-05T04:09:09.704Z,18.43
2018-09-05T04:11:37.274Z,18.40
2018-09-05T04:14:04.806Z,17.23
2018-09-05T04:16:32.380Z,18.17
2018-09-05T04:18:59.932Z,17.87
2018-09-05T04:21:27.493Z,17.90
2018-09-05T04:23:55.037Z,18.37
2018-09-05T04:26:22.613Z,20.20
2018-09-05T04:28:50.193Z,19.10
2018-09-05T04:31:17.767Z,17.83
2018-09-05T04:33:45.344Z,17.73
2018-09-05T04:36:13.622Z,18.85
2018-09-05T04:38:41.349Z,19.97
2018-09-05T04:41:08.869Z,21.27
2018-09-05T04:43:36.442Z,18.63
2018-09-05T04:46:04.051Z,19.10
2018-09-05T04:48:31.624Z,19.33
2018-09-05T04:50:59.197Z,17.57
2018-09-05T04:53:26.772Z,17.73
2018-09-05T04:55:54.300Z,23.00
2018-09-05T04:58:21.864Z,21.08
2018-09-05T05:00:49.411Z,20.30
2018-09-05T05:03:16.969Z,18.77
2018-09-05T05:05:44.516Z,19.10
2018-09-05T05:08:12.091Z,20.87
2018-09-05T05:10:39.868Z,20.97
2018-09-05T05:13:07.462Z,21.57
2018-09-05T05:15:35.055Z,21.20
2018-09-05T05:18:02.616Z,23.90
2018-09-05T05:20:30.195Z,22.43
2018-09-05T05:22:57.781Z,21.83
2018-09-05T05:25:25.294Z,21.30
2018-09-05T05:27:52.888Z,20.60
2018-09-05T05:30:20.467Z,23.90
2018-09-05T05:32:48.156Z,19.07
2018-09-05T05:35:15.577Z,19.97
2018-09-05T05:37:43.105Z,24.27
2018-09-05T05:40:10.697Z,19.63
2018-09-05T05:42:42.043Z,20.57
2018-09-05T05:45:09.652Z,20.20
2018-09-05T05:47:37.199Z,20.90
2018-09-05T05:50:04.741Z,19.53
2018-09-05T05:52:35.577Z,19.10
2018-09-05T05:55:03.180Z,19.47
2018-09-05T05:57:30.731Z,19.50
2018-09-05T05:59:58.305Z,18.63
2018-09-05T06:02:25.838Z,17.77
2018-09-05T06:04:53.397Z,19.10
2018-09-05T06:07:20.935Z,19.50
2018-09-05T06:09:48.516Z,18.60
2018-09-05T06:12:16.181Z,19.03
2018-09-05T06:14:43.709Z,18.03
2018-09-05T06:17:11.432Z,19.40
2018-09-05T06:19:39.128Z,19.30
2018-09-05T06:22:06.721Z,20.57
2018-09-05T06:24:34.448Z,18.93
2018-09-05T06:27:03.942Z,19.43
2018-09-05T06:29:31.530Z,20.05
2018-09-05T06:31:59.314Z,19.73
2018-09-05T06:34:27.868Z,18.70
2018-09-05T06:36:55.407Z,21.65
2018-09-05T06:39:23.148Z,20.47
2018-09-05T06:41:50.866Z,20.33
2018-09-05T06:44:18.588Z,20.77
2018-09-05T06:46:50.268Z,20.43
2018-09-05T06:51:44.544Z,20.60
2018-09-05T06:54:12.307Z,20.70
2018-09-05T06:56:40.148Z,21.03
2018-09-05T06:59:07.993Z,18.33
2018-09-05T07:01:36.814Z,18.97
2018-09-05T07:04:05.651Z,18.37
2018-09-05T07:06:33.280Z,17.73
2018-09-05T07:09:06.267Z,17.83
2018-09-05T07:11:35.011Z,18.77
2018-09-05T07:14:08.279Z,17.90
2018-09-05T07:16:36.319Z,17.77
2018-09-05T07:19:04.145Z,19.27
2018-09-05T07:21:31.829Z,19.03
2018-09-05T07:23:59.530Z,20.70
2018-09-05T07:26:28.308Z,18.20
2018-09-05T07:28:55.983Z,18.93
2018-09-05T07:31:26.881Z,19.80
2018-09-05T07:33:56.740Z,19.00
2018-09-05T07:36:28.987Z,17.80
2018-09-05T07:38:56.548Z,21.53
2018-09-05T07:41:24.275Z,19.17
2018-09-05T07:43:53.094Z,18.70
2018-09-05T07:46:24.427Z,18.93
2018-09-05T07:48:51.998Z,18.10
2018-09-05T07:51:21.467Z,21.83
2018-09-05T07:53:49.079Z,18.83
2018-09-05T07:56:20.169Z,17.83
2018-09-05T07:58:51.298Z,18.53
2018-09-05T08:01:19.022Z,18.97
2018-09-05T08:03:46.563Z,20.37
2018-09-05T08:06:14.120Z,19.27
2018-09-05T08:08:42.667Z,20.63
2018-09-05T08:11:12.231Z,18.90
2018-09-05T08:13:40.089Z,20.37
2018-09-05T08:16:07.813Z,18.83
2018-09-05T08:18:37.433Z,18.07
2018-09-05T08:21:05.130Z,18.47
2018-09-05T08:23:32.661Z,18.43
2018-09-05T08:26:00.239Z,19.03
2018-09-05T08:28:27.769Z,16.23
2018-09-05T08:30:55.367Z,17.03
2018-09-05T08:33:22.901Z,18.87
2018-09-05T08:35:50.818Z,17.00
2018-09-05T08:38:19.348Z,16.90
2018-09-05T08:40:50.124Z,16.03
2018-09-05T08:43:29.500Z,15.57
2018-09-05T08:45:57.128Z,15.03
2018-09-05T08:48:24.844Z,15.67
2018-09-05T08:50:52.302Z,15.30
2018-09-05T08:53:21.879Z,13.87
2018-09-05T08:55:49.526Z,13.47
2018-09-05T08:58:17.087Z,13.53
2018-09-05T09:00:49.406Z,12.57
2018-09-05T09:03:17.109Z,12.77
2018-09-05T09:05:44.704Z,11.77
2018-09-05T09:08:12.427Z,12.23
2018-09-05T09:10:44.760Z,12.07
2018-09-05T09:13:12.557Z,12.80
2018-09-05T09:15:40.095Z,11.97
2018-09-05T09:18:08.698Z,12.63
2018-09-05T09:20:39.265Z,13.90
2018-09-05T09:23:06.821Z,12.53
2018-09-05T09:25:34.416Z,12.93
2018-09-05T09:28:02.087Z,13.03
2018-09-05T09:30:30.873Z,13.77
2018-09-05T09:33:00.082Z,13.77
2018-09-05T09:35:28.089Z,13.18
2018-09-05T09:38:00.363Z,13.93
2018-09-05T09:40:29.969Z,14.07
2018-09-05T09:43:00.811Z,13.73
2018-09-05T09:45:28.610Z,13.57
2018-09-05T09:47:56.327Z,14.33
2018-09-05T09:50:28.472Z,13.25
2018-09-05T09:52:57.314Z,13.70
2018-09-05T09:55:27.806Z,15.27
2018-09-05T09:57:56.429Z,13.80
2018-09-05T10:00:24.228Z,14.10
2018-09-05T10:03:12.639Z,15.03
2018-09-05T10:05:58.095Z,18.47
2018-09-05T10:08:25.683Z,14.87
2018-09-05T10:10:55.718Z,15.33
2018-09-05T10:13:25.282Z,15.00
2018-09-05T10:15:52.845Z,15.65
2018-09-05T10:18:20.403Z,13.87
2018-09-05T10:20:48.000Z,14.50
2018-09-05T10:23:16.692Z,14.25
2018-09-05T10:25:44.265Z,15.73
2018-09-05T10:28:11.943Z,14.47
2018-09-05T10:30:39.669Z,14.23
2018-09-05T10:33:07.207Z,18.50
2018-09-05T10:35:34.771Z,14.80
2018-09-05T10:38:04.484Z,14.93
2018-09-05T10:40:38.093Z,16.23
2018-09-05T10:43:10.440Z,15.37
2018-09-05T10:45:41.940Z,14.37
2018-09-05T10:48:09.522Z,14.70
2018-09-05T10:50:37.129Z,14.90
2018-09-05T10:53:05.043Z,16.10
2018-09-05T10:55:33.761Z,14.87
2018-09-05T10:58:01.411Z,15.50
2018-09-05T11:00:32.777Z,16.58
2018-09-05T11:03:00.350Z,13.93
2018-09-05T11:05:28.085Z,20.43
2018-09-05T11:07:55.681Z,15.57
2018-09-05T11:10:23.361Z,15.40
2018-09-05T11:12:51.057Z,14.93
2018-09-05T11:15:18.690Z,16.03
2018-09-05T11:17:46.333Z,13.37
2018-09-05T11:20:14.075Z,15.17
2018-09-05T11:22:42.050Z,13.67
2018-09-05T11:25:12.326Z,13.50
2018-09-05T11:27:40.691Z,14.07
2018-09-05T11:30:08.525Z,14.07
2018-09-05T11:32:36.579Z,14.83
2018-09-05T11:35:04.801Z,16.57
2018-09-05T11:37:32.985Z,15.93
2018-09-05T11:40:01.222Z,13.80
2018-09-05T11:42:29.261Z,15.30
2018-09-05T11:44:58.163Z,14.87
2018-09-05T11:47:26.159Z,15.10
2018-09-05T11:49:57.771Z,14.50
2018-09-05T11:52:25.877Z,14.48
2018-09-05T11:54:53.928Z,15.20
2018-09-05T11:57:22.298Z,16.20
2018-09-05T11:59:50.326Z,13.57
2018-09-05T12:02:19.216Z,13.57
2018-09-05T12:04:47.433Z,14.37
2018-09-05T12:07:15.443Z,14.67
2018-09-05T12:09:44.378Z,14.23
2018-09-05T12:12:13.542Z,13.38
2018-09-05T12:14:41.399Z,14.90
2018-09-05T12:17:09.301Z,14.50
2018-09-05T12:19:39.215Z,13.53
2018-09-05T12:22:08.189Z,13.73
2018-09-05T12:24:37.137Z,14.07
2018-09-05T12:27:08.221Z,14.07
2018-09-05T12:29:36.183Z,13.50
2018-09-05T12:32:04.180Z,14.07
2018-09-05T12:34:36.570Z,13.90
2018-09-05T12:37:04.631Z,13.73
2018-09-05T12:39:32.739Z,14.57
2018-09-05T12:42:00.577Z,13.87
2018-09-05T12:44:28.495Z,14.33
2018-09-05T12:46:58.320Z,12.87
2018-09-05T12:49:26.080Z,12.77
2018-09-05T12:51:53.845Z,16.97
2018-09-05T12:54:21.461Z,35.87
2018-09-05T12:56:50.065Z,14.17
2018-09-05T12:59:17.993Z,13.67
2018-09-05T13:01:45.569Z,14.47
2018-09-05T13:04:13.749Z,13.37
2018-09-05T13:06:42.376Z,13.83
2018-09-05T13:09:10.120Z,14.93
2018-09-05T13:11:37.934Z,14.53
2018-09-05T13:14:05.735Z,14.57
2018-09-05T13:16:33.287Z,12.47
2018-09-05T13:19:00.883Z,13.13
2018-09-05T13:21:28.488Z,15.23
2018-09-05T13:23:56.147Z,14.63
2018-09-05T13:26:23.929Z,13.75
2018-09-05T13:28:51.713Z,16.77
2018-09-05T13:31:19.490Z,13.97
2018-09-05T13:33:47.194Z,17.20
2018-09-05T13:36:14.743Z,14.53
2018-09-05T13:38:42.322Z,14.70
2018-09-05T13:41:09.904Z,13.83
2018-09-05T13:43:37.520Z,21.30
2018-09-05T13:46:05.093Z,13.60
2018-09-05T13:48:32.883Z,14.05
2018-09-05T13:51:01.582Z,15.70
2018-09-05T13:53:31.264Z,13.50
2018-09-05T13:55:58.900Z,14.70
2018-09-05T13:58:26.480Z,15.75
2018-09-05T14:00:54.424Z,15.50
2018-09-05T14:03:22.206Z,16.47
2018-09-05T14:05:49.926Z,14.33
2018-09-05T14:08:17.807Z,17.37
2018-09-05T14:10:45.794Z,17.80
2018-09-05T14:13:13.821Z,15.70
2018-09-05T14:15:41.735Z,15.30
2018-09-05T14:18:09.545Z,15.90
2018-09-05T14:20:37.477Z,16.80
2018-09-05T14:23:05.100Z,17.47
2018-09-05T14:25:33.064Z,14.73
2018-09-05T14:28:02.960Z,14.80
2018-09-05T14:30:31.724Z,15.52
2018-09-05T14:33:00.159Z,15.80
2018-09-05T14:35:27.943Z,16.37
2018-09-05T14:37:55.843Z,15.03
2018-09-05T14:40:23.406Z,15.18
2018-09-05T14:42:51.111Z,15.37
2018-09-05T14:45:18.873Z,15.73
2018-09-05T14:47:46.825Z,14.73
2018-09-05T14:50:14.533Z,14.23
2018-09-05T14:52:42.084Z,17.60
2018-09-05T14:55:09.939Z,15.40
2018-09-05T14:57:37.690Z,16.02
2018-09-05T15:00:05.562Z,13.73
2018-09-05T15:02:34.297Z,20.53
2018-09-05T15:05:02.057Z,13.13
2018-09-05T15:07:30.069Z,13.07
2018-09-05T15:09:57.854Z,13.20
2018-09-05T15:12:25.690Z,12.68
2018-09-05T15:14:53.635Z,34.90
2018-09-05T15:17:21.469Z,13.77
2018-09-05T15:19:49.498Z,13.00
2018-09-05T15:22:17.363Z,12.33
2018-09-05T15:24:45.041Z,12.27
2018-09-05T15:27:12.787Z,13.10
2018-09-05T15:29:40.451Z,14.30
2018-09-05T15:32:08.054Z,13.67
2018-09-05T15:34:35.605Z,11.93
2018-09-05T15:37:03.230Z,11.57
2018-09-05T15:39:30.854Z,11.77
2018-09-05T15:41:58.445Z,11.03
2018-09-05T15:44:26.190Z,18.57
2018-09-05T15:46:53.807Z,11.37
2018-09-05T15:49:21.331Z,12.47
2018-09-05T15:51:48.866Z,10.73
2018-09-05T15:54:16.440Z,10.27
2018-09-05T15:56:44.007Z,10.23
2018-09-05T15:59:11.548Z,10.80
2018-09-05T16:01:39.126Z,11.57
2018-09-05T16:04:06.689Z,10.57
2018-09-05T16:06:34.207Z,10.53
2018-09-05T16:09:01.787Z,9.37
2018-09-05T16:11:29.302Z,13.37
2018-09-05T16:13:56.952Z,10.83
2018-09-05T16:16:24.527Z,10.02
2018-09-05T16:18:52.127Z,13.57
2018-09-05T16:21:19.704Z,9.90
2018-09-05T16:23:47.238Z,12.87
2018-09-05T16:26:14.853Z,10.57
2018-09-05T16:28:42.388Z,10.57
2018-09-05T16:31:10.954Z,11.37
2018-09-05T16:33:38.521Z,10.07
2018-09-05T16:36:07.223Z,11.90
2018-09-05T16:38:34.725Z,9.27
2018-09-05T16:41:02.295Z,9.33
2018-09-05T16:43:29.875Z,9.50
2018-09-05T16:45:57.480Z,10.07
2018-09-05T16:48:25.033Z,9.80
2018-09-05T16:50:52.677Z,10.37
2018-09-05T16:53:20.262Z,9.93
2018-09-05T16:55:48.001Z,10.27
2018-09-05T16:58:15.585Z,9.27
2018-09-05T17:00:43.263Z,12.43
2018-09-05T17:03:10.839Z,9.63
2018-09-05T17:05:38.429Z,9.67
2018-09-05T17:08:05.965Z,11.60
2018-09-05T17:10:33.533Z,10.70
2018-09-05T17:13:01.441Z,10.77
2018-09-05T17:15:28.977Z,9.77
2018-09-05T17:17:56.537Z,10.93
2018-09-05T17:20:24.105Z,9.32
2018-09-05T17:22:51.698Z,10.40
2018-09-05T17:25:19.310Z,9.83
2018-09-05T17:27:46.840Z,9.33
2018-09-05T17:30:14.912Z,9.63
2018-09-05T17:32:42.424Z,9.50
2018-09-05T17:35:10.012Z,9.87
2018-09-05T17:37:37.620Z,9.00
2018-09-05T17:40:05.330Z,8.97
2018-09-05T17:42:32.863Z,9.83
2018-09-05T17:45:00.402Z,8.83
2018-09-05T17:47:28.060Z,8.80
2018-09-05T17:49:55.572Z,8.90
2018-09-05T17:52:23.101Z,10.73
2018-09-05T17:54:50.664Z,9.30
2018-09-05T17:57:18.224Z,9.73
2018-09-05T17:59:45.924Z,11.47
2018-09-05T18:02:13.617Z,8.87
2018-09-05T18:04:41.205Z,9.53
2018-09-05T18:07:08.745Z,10.57
2018-09-05T18:09:39.501Z,11.07
2018-09-05T18:12:07.069Z,10.87
2018-09-05T18:14:34.664Z,15.23
2018-09-05T18:17:02.260Z,21.20
2018-09-05T18:19:29.823Z,17.87
2018-09-05T18:21:57.361Z,14.70
2018-09-05T18:24:24.988Z,13.10
2018-09-05T18:26:52.487Z,20.43
2018-09-05T18:29:20.101Z,25.20
2018-09-05T18:31:47.632Z,17.73
2018-09-05T18:34:15.335Z,11.50
2018-09-05T18:36:42.913Z,9.77
2018-09-05T18:39:10.441Z,10.10
2018-09-05T18:41:38.018Z,10.20
2018-09-05T18:44:05.585Z,10.23
2018-09-05T18:46:33.165Z,12.83
2018-09-05T18:49:00.806Z,8.83
2018-09-05T18:51:28.389Z,10.53
2018-09-05T18:53:55.923Z,9.33
2018-09-05T18:56:24.613Z,11.30
2018-09-05T18:58:52.344Z,18.40
2018-09-05T19:01:19.929Z,18.40
2018-09-05T19:03:48.525Z,20.60
2018-09-05T19:06:17.157Z,17.30
2018-09-05T19:08:44.739Z,13.87
2018-09-05T19:11:12.442Z,11.47
2018-09-05T19:13:40.219Z,9.63
2018-09-05T19:16:07.750Z,8.93
2018-09-05T19:18:36.302Z,9.87
2018-09-05T19:21:03.871Z,14.73
2018-09-05T19:23:31.553Z,11.03
2018-09-05T19:25:59.312Z,8.77
2018-09-05T19:28:27.082Z,8.60
2018-09-05T19:30:54.828Z,8.37
2018-09-05T19:33:22.382Z,8.60
2018-09-05T19:35:50.063Z,8.10
2018-09-05T19:38:17.898Z,9.83
2018-09-05T19:40:47.745Z,10.87
2018-09-05T19:43:16.747Z,9.67
2018-09-05T19:45:45.864Z,8.53
2018-09-05T19:48:13.913Z,8.07
2018-09-05T19:50:41.809Z,7.67
2018-09-05T19:53:09.888Z,7.37
2018-09-05T19:55:37.800Z,8.37
2018-09-05T19:58:06.689Z,7.70
2018-09-05T20:00:34.806Z,7.93
2018-09-05T20:03:03.028Z,7.87
2018-09-05T20:05:30.947Z,8.33
2018-09-05T20:07:59.049Z,8.87
2018-09-05T20:10:26.738Z,8.77
2018-09-05T20:12:54.503Z,8.03
2018-09-05T20:15:22.375Z,7.90
2018-09-05T20:17:50.178Z,8.20
2018-09-05T20:20:18.004Z,10.73
2018-09-05T20:22:45.834Z,8.27
2018-09-05T20:25:13.686Z,8.27
2018-09-05T20:27:42.705Z,7.47
2018-09-05T20:30:14.047Z,8.73
2018-09-05T20:32:42.477Z,9.57
2018-09-05T20:35:10.644Z,7.43
2018-09-05T20:37:38.762Z,6.97
2018-09-05T20:40:06.659Z,7.50
2018-09-05T20:42:34.893Z,8.20
2018-09-05T20:45:02.519Z,7.93
2018-09-05T20:47:30.366Z,7.03
2018-09-05T20:49:58.411Z,6.47
2018-09-05T20:52:26.262Z,6.23
2018-09-05T20:54:54.185Z,6.77
2018-09-05T20:57:22.085Z,6.20
2018-09-05T20:59:50.015Z,8.00
2018-09-05T21:02:17.745Z,6.20
2018-09-05T21:04:45.686Z,9.57
2018-09-05T21:07:13.578Z,6.70
2018-09-05T21:09:41.322Z,7.67
2018-09-05T21:12:09.167Z,6.83
2018-09-05T21:14:37.089Z,7.47
2018-09-05T21:17:05.676Z,6.97
2018-09-05T21:19:33.418Z,11.33
2018-09-05T21:22:01.151Z,9.53
2018-09-05T21:24:28.793Z,6.83
2018-09-05T21:26:56.676Z,6.70
2018-09-05T21:29:27.861Z,9.80
2018-09-05T21:31:55.687Z,9.20
2018-09-05T21:34:24.783Z,7.18
2018-09-05T21:36:52.512Z,7.03
2018-09-05T21:39:20.065Z,9.27
2018-09-05T21:41:47.692Z,7.77
2018-09-05T21:44:15.244Z,7.67
2018-09-05T21:46:42.832Z,7.47
2018-09-05T21:49:10.363Z,6.87
2018-09-05T21:51:37.921Z,11.93
2018-09-05T21:54:10.208Z,8.77
2018-09-05T21:56:37.772Z,7.63
2018-09-05T21:59:05.372Z,7.07
2018-09-05T22:01:32.894Z,8.60
2018-09-05T22:04:00.995Z,9.03
2018-09-05T22:06:28.676Z,7.33
2018-09-05T22:08:56.248Z,8.80
2018-09-05T22:11:23.991Z,7.13
2018-09-05T22:13:51.576Z,6.90
2018-09-05T22:16:19.151Z,12.47
2018-09-05T22:18:46.715Z,7.37
2018-09-05T22:21:14.265Z,9.40
2018-09-05T22:23:41.792Z,8.03
2018-09-05T22:26:09.392Z,7.13
2018-09-05T22:28:36.970Z,7.55
2018-09-05T22:31:04.513Z,7.23
2018-09-05T22:33:32.231Z,10.10
2018-09-05T22:35:59.777Z,7.00
2018-09-05T22:38:27.336Z,6.85
2018-09-05T22:40:54.923Z,9.10
2018-09-05T22:47:00.776Z,8.63
2018-09-05T22:49:28.343Z,7.27
2018-09-05T22:52:10.791Z,7.13
2018-09-05T22:54:54.970Z,7.37
2018-09-05T22:57:42.335Z,6.43
2018-09-05T23:00:09.878Z,7.20
2018-09-05T23:02:37.536Z,6.93
2018-09-05T23:05:05.421Z,6.73
2018-09-05T23:07:33.285Z,7.23
2018-09-05T23:10:12.720Z,10.17
2018-09-05T23:13:01.401Z,10.93
2018-09-05T23:15:41.033Z,6.53
2018-09-05T23:18:29.108Z,9.53
2018-09-05T23:20:57.091Z,8.27
2018-09-05T23:23:36.589Z,7.65
2018-09-05T23:26:04.526Z,7.17
2018-09-05T23:28:32.496Z,7.33
2018-09-05T23:31:00.371Z,9.10
2018-09-05T23:33:28.415Z,11.07
2018-09-05T23:35:56.296Z,9.40
2018-09-05T23:38:24.195Z,8.90
2018-09-05T23:40:52.029Z,7.87
2018-09-05T23:43:19.665Z,6.73
2018-09-05T23:45:47.190Z,9.27
2018-09-05T23:48:15.005Z,8.32
2018-09-05T23:50:43.356Z,7.82
2018-09-05T23:53:12.063Z,13.97
2018-09-05T23:55:39.901Z,10.10
2018-09-05T23:58:07.775Z,10.80
